Time,TemperatureF,DewpointF,PressureIn,WindDirection,WindDirectionDegrees,WindSpeedMPH,WindSpeedGustMPH,Humidity,HourlyPrecipIn,Conditions,Clouds,dailyrainin,SoftwareType,DateUTC
2013-07-31 00:02:00,78.0,57.0,29.88,ENE,78,11.0,13.0,48,0.00,,,0.08,,2013-07-31 06:02:00,
2013-07-31 00:12:00,78.0,57.0,29.88,ENE,78,11.0,13.0,48,0.00,,,0.08,,2013-07-31 06:12:00,
2013-07-31 00:22:00,78.0,56.0,29.88,East,88,10.0,13.0,47,0.00,,,0.08,,2013-07-31 06:22:00,
2013-07-31 00:32:00,77.0,55.0,29.89,SE,139,7.0,9.0,47,0.00,,,0.08,,2013-07-31 06:32:00,
2013-07-31 00:42:00,77.0,55.0,29.89,SE,139,7.0,9.0,47,0.00,,,0.08,,2013-07-31 06:42:00,
2013-07-31 00:53:00,77.0,55.0,29.89,SSE,168,2.0,9.0,46,0.00,,,0.08,,2013-07-31 06:53:00,
2013-07-31 01:02:00,79.0,55.0,29.89,SSE,166,6.0,8.0,44,0.00,,,0.08,,2013-07-31 07:02:00,
2013-07-31 01:12:00,79.0,55.0,29.89,SSE,166,6.0,8.0,44,0.00,,,0.08,,2013-07-31 07:12:00,
2013-07-31 01:22:00,79.0,50.0,29.89,South,180,3.0,6.0,37,0.00,,,0.08,,2013-07-31 07:22:00,
2013-07-31 01:32:00,80.0,52.0,29.89,South,180,0.0,2.0,38,0.00,,,0.08,,2013-07-31 07:32:00,
2013-07-31 01:43:00,80.0,52.0,29.89,South,180,0.0,2.0,38,0.00,,,0.08,,2013-07-31 07:43:00,
2013-07-31 02:02:00,78.0,54.0,29.89,South,180,4.0,6.0,43,0.00,,,0.08,,2013-07-31 08:02:00,
2013-07-31 02:12:00,78.0,54.0,29.89,South,180,4.0,6.0,43,0.00,,,0.08,,2013-07-31 08:12:00,
2013-07-31 02:22:00,77.0,53.0,29.89,South,180,5.0,7.0,44,0.00,,,0.08,,2013-07-31 08:22:00,
2013-07-31 02:32:00,77.0,53.0,29.88,South,180,4.0,9.0,44,0.00,,,0.08,,2013-07-31 08:32:00,
2013-07-31 02:42:00,77.0,53.0,29.88,South,180,4.0,9.0,44,0.00,,,0.08,,2013-07-31 08:42:00,
2013-07-31 03:02:00,80.0,52.0,29.88,South,180,3.0,4.0,38,0.00,,,0.08,,2013-07-31 09:02:00,
2013-07-31 03:32:00,79.0,52.0,29.88,South,180,4.0,6.0,39,0.00,,,0.08,,2013-07-31 09:32:00,
2013-07-31 03:43:00,79.0,52.0,29.88,South,180,4.0,6.0,39,0.00,,,0.08,,2013-07-31 09:43:00,
2013-07-31 04:02:00,79.0,51.0,29.88,South,180,6.0,7.0,38,0.00,,,0.08,,2013-07-31 10:02:00,
2013-07-31 04:12:00,79.0,51.0,29.88,South,180,6.0,7.0,38,0.00,,,0.08,,2013-07-31 10:12:00,
2013-07-31 04:32:00,79.0,50.0,29.88,South,187,6.0,8.0,37,0.00,,,0.08,,2013-07-31 10:32:00,
2013-07-31 04:44:00,79.0,50.0,29.88,South,187,6.0,8.0,37,0.00,,,0.08,,2013-07-31 10:44:00,
2013-07-31 04:52:00,79.0,50.0,29.88,South,187,5.0,7.0,37,0.00,,,0.08,,2013-07-31 10:52:00,
2013-07-31 05:03:00,79.0,50.0,29.88,South,187,4.0,6.0,37,0.00,,,0.08,,2013-07-31 11:03:00,
2013-07-31 05:12:00,79.0,50.0,29.88,South,187,4.0,6.0,37,0.00,,,0.08,,2013-07-31 11:12:00,
2013-07-31 05:33:00,79.0,51.0,29.89,South,187,4.0,5.0,38,0.00,,,0.08,,2013-07-31 11:33:00,
2013-07-31 05:43:00,79.0,51.0,29.89,South,187,4.0,5.0,38,0.00,,,0.08,,2013-07-31 11:43:00,
2013-07-31 05:53:00,79.0,51.0,29.89,South,187,5.0,6.0,38,0.00,,,0.08,,2013-07-31 11:53:00,
2013-07-31 06:02:00,76.0,52.0,29.90,West,275,7.0,11.0,44,0.00,,,0.08,,2013-07-31 12:02:00,
2013-07-31 06:12:00,76.0,52.0,29.90,West,275,7.0,11.0,44,0.00,,,0.08,,2013-07-31 12:12:00,
2013-07-31 06:22:00,76.0,52.0,29.90,West,260,10.0,11.0,43,0.00,,,0.08,,2013-07-31 12:22:00,
2013-07-31 06:32:00,77.0,53.0,29.91,WSW,251,11.0,13.0,44,0.00,,,0.08,,2013-07-31 12:32:00,
2013-07-31 06:43:00,77.0,53.0,29.91,WSW,251,11.0,13.0,44,0.00,,,0.08,,2013-07-31 12:43:00,
2013-07-31 06:53:00,76.0,54.0,29.91,WSW,244,8.0,11.0,47,0.00,,,0.08,,2013-07-31 12:53:00,
2013-07-31 07:02:00,75.0,52.0,29.91,SW,234,8.0,10.0,45,0.00,,,0.08,,2013-07-31 13:02:00,
2013-07-31 07:12:00,75.0,52.0,29.91,SW,234,8.0,10.0,45,0.00,,,0.08,,2013-07-31 13:12:00,
2013-07-31 07:22:00,76.0,53.0,29.91,WSW,247,8.0,10.0,45,0.00,,,0.08,,2013-07-31 13:22:00,
2013-07-31 07:43:00,75.0,55.0,29.91,WSW,247,4.0,7.0,49,0.00,,,0.08,,2013-07-31 13:43:00,
2013-07-31 07:53:00,75.0,53.0,29.92,WSW,247,6.0,8.0,46,0.00,,,0.08,,2013-07-31 13:53:00,
2013-07-31 08:02:00,75.0,55.0,29.92,WSW,247,4.0,6.0,50,0.00,,,0.08,,2013-07-31 14:02:00,
2013-07-31 08:12:00,75.0,55.0,29.92,WSW,247,4.0,6.0,50,0.00,,,0.08,,2013-07-31 14:12:00,
2013-07-31 08:22:00,75.0,55.0,29.92,WSW,247,2.0,5.0,50,0.00,,,0.08,,2013-07-31 14:22:00,
2013-07-31 08:34:00,76.0,55.0,29.93,WSW,247,3.0,4.0,49,0.00,,,0.08,,2013-07-31 14:34:00,
2013-07-31 08:43:00,76.0,55.0,29.93,WSW,247,3.0,4.0,49,0.00,,,0.08,,2013-07-31 14:43:00,
2013-07-31 08:53:00,77.0,56.0,29.93,WSW,247,1.0,3.0,49,0.00,,,0.08,,2013-07-31 14:53:00,
2013-07-31 09:02:00,77.0,56.0,29.93,WSW,247,2.0,4.0,48,0.00,,,0.08,,2013-07-31 15:02:00,
2013-07-31 09:12:00,77.0,56.0,29.93,WSW,247,2.0,4.0,48,0.00,,,0.08,,2013-07-31 15:12:00,
2013-07-31 09:22:00,79.0,56.0,29.93,WSW,247,2.0,4.0,45,0.00,,,0.08,,2013-07-31 15:22:00,
2013-07-31 09:33:00,79.0,55.0,29.93,WSW,247,2.0,4.0,43,0.00,,,0.08,,2013-07-31 15:33:00,
2013-07-31 09:43:00,79.0,55.0,29.93,WSW,247,2.0,4.0,43,0.00,,,0.08,,2013-07-31 15:43:00,
2013-07-31 09:53:00,81.0,55.0,29.93,WSW,247,1.0,4.0,41,0.00,,,0.08,,2013-07-31 15:53:00,
2013-07-31 10:02:00,83.0,56.0,29.93,WSW,247,1.0,5.0,40,0.00,,,0.08,,2013-07-31 16:02:00,
2013-07-31 10:12:00,83.0,56.0,29.93,WSW,247,1.0,5.0,40,0.00,,,0.08,,2013-07-31 16:12:00,
2013-07-31 10:22:00,85.0,57.0,29.93,WSW,247,0.0,4.0,38,0.00,,,0.08,,2013-07-31 16:22:00,
2013-07-31 10:33:00,86.0,57.0,29.92,NNE,23,3.0,13.0,37,0.00,,,0.08,,2013-07-31 16:33:00,
2013-07-31 10:44:00,86.0,57.0,29.92,NNE,23,3.0,13.0,37,0.00,,,0.08,,2013-07-31 16:44:00,
2013-07-31 10:52:00,86.0,55.0,29.92,NNE,23,5.0,7.0,35,0.00,,,0.08,,2013-07-31 16:52:00,
2013-07-31 11:02:00,86.0,56.0,29.92,NNE,23,3.0,6.0,36,0.00,,,0.08,,2013-07-31 17:02:00,
2013-07-31 11:13:00,86.0,56.0,29.92,NNE,23,3.0,6.0,36,0.00,,,0.08,,2013-07-31 17:13:00,
2013-07-31 11:22:00,86.0,54.0,29.92,NNE,23,2.0,6.0,33,0.00,,,0.08,,2013-07-31 17:22:00,
2013-07-31 11:33:00,87.0,53.0,29.91,NNE,23,0.0,5.0,31,0.00,,,0.08,,2013-07-31 17:33:00,
2013-07-31 11:43:00,87.0,53.0,29.91,NNE,23,0.0,5.0,31,0.00,,,0.08,,2013-07-31 17:43:00,
2013-07-31 11:53:00,87.0,53.0,29.91,NNE,23,1.0,5.0,31,0.00,,,0.08,,2013-07-31 17:53:00,
2013-07-31 12:02:00,87.0,53.0,29.91,NNE,23,1.0,5.0,31,0.00,,,0.08,,2013-07-31 18:02:00,
2013-07-31 12:12:00,90.0,54.0,29.91,NNE,23,4.0,7.0,30,0.00,,,0.08,,2013-07-31 18:12:00,
2013-07-31 12:22:00,88.0,53.0,29.90,NNE,23,2.0,8.0,30,0.00,,,0.08,,2013-07-31 18:22:00,
2013-07-31 12:32:00,88.0,53.0,29.90,NNE,23,2.0,8.0,30,0.00,,,0.08,,2013-07-31 18:32:00,
2013-07-31 12:43:00,88.0,53.0,29.90,SE,124,3.0,10.0,30,0.00,,,0.08,,2013-07-31 18:43:00,
2013-07-31 12:52:00,89.0,53.0,29.90,SSW,192,4.0,11.0,29,0.00,,,0.08,,2013-07-31 18:52:00,
2013-07-31 13:02:00,89.0,53.0,29.90,SSW,192,4.0,11.0,29,0.00,,,0.08,,2013-07-31 19:02:00,
2013-07-31 13:12:00,89.0,52.0,29.89,SSW,200,1.0,7.0,28,0.00,,,0.08,,2013-07-31 19:12:00,
2013-07-31 13:22:00,88.0,52.0,29.88,West,267,5.0,10.0,29,0.00,,,0.08,,2013-07-31 19:22:00,
2013-07-31 13:32:00,88.0,52.0,29.88,West,267,5.0,10.0,29,0.00,,,0.08,,2013-07-31 19:32:00,
2013-07-31 13:43:00,90.0,52.0,29.88,SW,230,9.0,13.0,28,0.00,,,0.08,,2013-07-31 19:43:00,
2013-07-31 13:52:00,90.0,52.0,29.87,West,271,6.0,16.0,28,0.00,,,0.08,,2013-07-31 19:52:00,
2013-07-31 14:02:00,90.0,52.0,29.87,West,271,6.0,16.0,28,0.00,,,0.08,,2013-07-31 20:02:00,
2013-07-31 14:12:00,89.0,53.0,29.87,WNW,286,6.0,16.0,29,0.00,,,0.08,,2013-07-31 20:12:00,
2013-07-31 14:22:00,89.0,53.0,29.87,WNW,286,6.0,16.0,29,0.00,,,0.08,,2013-07-31 20:22:00,
2013-07-31 14:32:00,90.0,53.0,29.85,SW,236,11.0,21.0,29,0.00,,,0.08,,2013-07-31 20:32:00,
2013-07-31 14:42:00,91.0,54.0,29.85,SW,223,11.0,20.0,29,0.00,,,0.08,,2013-07-31 20:42:00,
2013-07-31 14:52:00,91.0,54.0,29.84,South,169,10.0,18.0,29,0.00,,,0.08,,2013-07-31 20:52:00,
2013-07-31 15:02:00,91.0,54.0,29.84,South,169,10.0,18.0,29,0.00,,,0.08,,2013-07-31 21:02:00,
2013-07-31 15:12:00,90.0,52.0,29.83,SW,215,11.0,17.0,28,0.00,,,0.08,,2013-07-31 21:12:00,
2013-07-31 15:22:00,89.0,52.0,29.83,SE,136,12.0,19.0,28,0.00,,,0.08,,2013-07-31 21:22:00,
2013-07-31 15:32:00,89.0,52.0,29.83,SE,136,12.0,19.0,28,0.00,,,0.08,,2013-07-31 21:32:00,
2013-07-31 15:43:00,87.0,52.0,29.82,East,79,23.0,31.0,30,0.00,,,0.08,,2013-07-31 21:43:00,
2013-07-31 15:53:00,88.0,47.0,29.82,East,86,11.0,22.0,24,0.00,,,0.08,,2013-07-31 21:53:00,
2013-07-31 16:02:00,88.0,47.0,29.82,East,86,11.0,22.0,24,0.00,,,0.08,,2013-07-31 22:02:00,
2013-07-31 16:12:00,88.0,54.0,29.81,ENE,60,3.0,14.0,31,0.00,,,0.08,,2013-07-31 22:12:00,
2013-07-31 16:22:00,89.0,53.0,29.80,ENE,60,2.0,4.0,29,0.00,,,0.00,,2013-07-31 22:22:00,
2013-07-31 16:33:00,89.0,53.0,29.80,ENE,60,2.0,4.0,29,0.00,,,0.00,,2013-07-31 22:33:00,
2013-07-31 16:43:00,90.0,52.0,29.80,ENE,60,1.0,6.0,28,0.00,,,0.00,,2013-07-31 22:43:00,
2013-07-31 16:53:00,90.0,52.0,29.78,SSW,202,19.0,24.0,28,0.00,,,0.00,,2013-07-31 22:53:00,
2013-07-31 17:02:00,90.0,52.0,29.78,SSW,202,19.0,24.0,28,0.00,,,0.00,,2013-07-31 23:02:00,
2013-07-31 17:12:00,90.0,51.0,29.79,SSW,192,3.0,7.0,27,0.00,,,0.00,,2013-07-31 23:12:00,
2013-07-31 17:22:00,90.0,51.0,29.79,SSE,163,3.0,9.0,27,0.00,,,0.00,,2013-07-31 23:22:00,
2013-07-31 17:32:00,90.0,51.0,29.79,SSE,163,3.0,9.0,27,0.00,,,0.00,,2013-07-31 23:32:00,
2013-07-31 17:42:00,91.0,51.0,29.78,SW,216,5.0,10.0,26,0.00,,,0.00,,2013-07-31 23:42:00,
2013-07-31 17:52:00,91.0,51.0,29.78,SSW,198,7.0,12.0,26,0.00,,,0.00,,2013-07-31 23:52:00,
2013-07-31 18:02:00,91.0,51.0,29.78,SSW,198,7.0,12.0,26,0.00,,,0.00,,2013-08-01 00:02:00,
2013-07-31 18:12:00,91.0,49.0,29.78,South,178,8.0,18.0,24,0.00,,,0.00,,2013-08-01 00:12:00,
2013-07-31 18:22:00,91.0,49.0,29.78,WSW,248,3.0,10.0,24,0.00,,,0.00,,2013-08-01 00:22:00,
2013-07-31 18:32:00,91.0,49.0,29.78,WSW,248,3.0,10.0,24,0.00,,,0.00,,2013-08-01 00:32:00,
2013-07-31 18:43:00,87.0,54.0,29.79,ENE,74,18.0,27.0,32,0.00,,,0.00,,2013-08-01 00:43:00,
2013-07-31 18:52:00,84.0,53.0,29.79,NE,51,23.0,30.0,34,0.00,,,0.00,,2013-08-01 00:52:00,
2013-07-31 19:02:00,84.0,53.0,29.79,NE,51,23.0,30.0,34,0.00,,,0.00,,2013-08-01 01:02:00,
2013-07-31 19:12:00,82.0,55.0,29.79,ENE,76,26.0,33.0,40,0.00,,,0.00,,2013-08-01 01:12:00,
2013-07-31 19:22:00,79.0,56.0,29.80,ENE,67,19.0,29.0,46,0.01,,,0.01,,2013-08-01 01:22:00,
2013-07-31 19:33:00,79.0,56.0,29.80,ENE,67,19.0,29.0,46,0.01,,,0.01,,2013-08-01 01:33:00,
2013-07-31 19:53:00,78.0,57.0,29.80,NE,50,21.0,25.0,48,0.01,,,0.01,,2013-08-01 01:53:00,
2013-07-31 20:02:00,78.0,57.0,29.80,NE,50,21.0,25.0,48,0.01,,,0.01,,2013-08-01 02:02:00,
2013-07-31 20:12:00,78.0,56.0,29.80,NE,44,18.0,24.0,46,0.01,,,0.01,,2013-08-01 02:12:00,
2013-07-31 20:22:00,80.0,53.0,29.81,NE,45,16.0,24.0,39,0.00,,,0.01,,2013-08-01 02:22:00,
2013-07-31 20:32:00,80.0,53.0,29.81,NE,45,16.0,24.0,39,0.00,,,0.01,,2013-08-01 02:32:00,
2013-07-31 20:43:00,81.0,53.0,29.81,NE,46,15.0,20.0,38,0.00,,,0.01,,2013-08-01 02:43:00,
2013-07-31 20:52:00,81.0,52.0,29.80,NE,44,14.0,20.0,36,0.00,,,0.01,,2013-08-01 02:52:00,
2013-07-31 21:02:00,81.0,52.0,29.80,NE,44,14.0,20.0,36,0.00,,,0.01,,2013-08-01 03:02:00,
2013-07-31 21:12:00,82.0,52.0,29.81,NE,51,14.0,21.0,35,0.00,,,0.01,,2013-08-01 03:12:00,
2013-07-31 21:22:00,82.0,50.0,29.82,ENE,65,11.0,16.0,33,0.00,,,0.01,,2013-08-01 03:22:00,
2013-07-31 21:32:00,82.0,50.0,29.82,ENE,65,11.0,16.0,33,0.00,,,0.01,,2013-08-01 03:32:00,
2013-07-31 21:43:00,78.0,54.0,29.82,ENE,63,17.0,24.0,43,0.00,,,0.01,,2013-08-01 03:43:00,
2013-07-31 21:53:00,79.0,51.0,29.82,East,94,17.0,22.0,38,0.00,,,0.01,,2013-08-01 03:53:00,
2013-07-31 22:02:00,79.0,51.0,29.82,East,94,17.0,22.0,38,0.00,,,0.01,,2013-08-01 04:02:00,
2013-07-31 22:12:00,81.0,51.0,29.83,SE,132,15.0,19.0,35,0.00,,,0.01,,2013-08-01 04:12:00,
2013-07-31 22:22:00,81.0,51.0,29.79,South,169,36.0,45.0,35,0.00,,,0.01,,2013-08-01 04:22:00,
2013-07-31 22:33:00,81.0,51.0,29.79,South,169,36.0,45.0,35,0.00,,,0.01,,2013-08-01 04:33:00,
2013-07-31 23:13:00,75.0,56.0,29.83,West,268,28.0,37.0,52,0.00,,,0.01,,2013-08-01 05:13:00,
2013-07-31 23:23:00,75.0,56.0,29.83,West,268,28.0,37.0,52,0.00,,,0.01,,2013-08-01 05:23:00,
2013-07-31 23:33:00,76.0,54.0,29.86,WNW,291,15.0,25.0,46,0.00,,,0.01,,2013-08-01 05:33:00,
2013-07-31 23:43:00,76.0,54.0,29.86,NW,313,12.0,18.0,46,0.00,,,0.01,,2013-08-01 05:43:00,
2013-07-31 23:53:00,76.0,54.0,29.86,NW,313,12.0,18.0,46,0.00,,,0.01,,2013-08-01 05:53:00,